sensor_id;sensor_type;location;lat;lon;timestamp;pressure;altitude;pressure_sealevel;temperature;humidity
53011;BME280;42803;55.762;38.084;2023-01-29T00:00:26;99758.31;;;-3.23;100.00
53011;BME280;42803;55.762;38.084;2023-01-29T00:02:56;99758.00;;;-3.19;100.00
53011;BME280;42803;55.762;38.084;2023-01-29T00:05:25;99751.47;;;-3.16;100.00
53011;BME280;42803;55.762;38.084;2023-01-29T00:07:55;99751.84;;;-3.13;100.00
53011;BME280;42803;55.762;38.084;2023-01-29T00:10:25;99743.81;;;-3.16;100.00
53011;BME280;42803;55.762;38.084;2023-01-29T00:12:54;99741.94;;;-3.17;100.00
53011;BME280;42803;55.762;38.084;2023-01-29T00:15:23;99750.34;;;-3.19;100.00
53011;BME280;42803;55.762;38.084;2023-01-29T00:17:53;99754.41;;;-3.13;100.00
53011;BME280;42803;55.762;38.084;2023-01-29T00:20:22;99746.53;;;-3.02;100.00
53011;BME280;42803;55.762;38.084;2023-01-29T00:22:51;99752.69;;;-3.07;100.00
53011;BME280;42803;55.762;38.084;2023-01-29T00:25:20;99752.19;;;-3.05;100.00
53011;BME280;42803;55.762;38.084;2023-01-29T00:27:50;99750.75;;;-3.15;100.00
53011;BME280;42803;55.762;38.084;2023-01-29T00:30:19;99745.84;;;-3.27;100.00
53011;BME280;42803;55.762;38.084;2023-01-29T00:32:50;99739.00;;;-3.33;100.00
53011;BME280;42803;55.762;38.084;2023-01-29T00:35:22;99738.50;;;-3.31;100.00
53011;BME280;42803;55.762;38.084;2023-01-29T00:37:51;99737.78;;;-3.30;100.00
53011;BME280;42803;55.762;38.084;2023-01-29T00:40:20;99729.69;;;-3.33;100.00
53011;BME280;42803;55.762;38.084;2023-01-29T00:42:50;99731.16;;;-3.35;100.00
53011;BME280;42803;55.762;38.084;2023-01-29T00:45:38;99732.88;;;-3.41;100.00
53011;BME280;42803;55.762;38.084;2023-01-29T00:48:07;99719.31;;;-3.47;100.00
53011;BME280;42803;55.762;38.084;2023-01-29T00:50:37;99721.22;;;-3.52;100.00
53011;BME280;42803;55.762;38.084;2023-01-29T00:53:06;99717.03;;;-3.51;100.00
53011;BME280;42803;55.762;38.084;2023-01-29T00:55:35;99720.72;;;-3.49;100.00
53011;BME280;42803;55.762;38.084;2023-01-29T00:58:04;99715.44;;;-3.51;100.00
53011;BME280;42803;55.762;38.084;2023-01-29T01:00:33;99716.66;;;-3.54;100.00
53011;BME280;42803;55.762;38.084;2023-01-29T01:03:02;99717.03;;;-3.51;100.00
53011;BME280;42803;55.762;38.084;2023-01-29T01:05:34;99711.25;;;-3.50;100.00
53011;BME280;42803;55.762;38.084;2023-01-29T01:08:05;99703.66;;;-3.56;100.00
53011;BME280;42803;55.762;38.084;2023-01-29T01:11:00;99701.41;;;-3.60;100.00
53011;BME280;42803;55.762;38.084;2023-01-29T01:13:29;99715.81;;;-3.60;100.00
53011;BME280;42803;55.762;38.084;2023-01-29T01:15:59;99717.94;;;-3.63;100.00
53011;BME280;42803;55.762;38.084;2023-01-29T01:18:29;99714.59;;;-3.70;100.00
53011;BME280;42803;55.762;38.084;2023-01-29T01:20:58;99708.56;;;-3.70;100.00
53011;BME280;42803;55.762;38.084;2023-01-29T01:23:29;99706.41;;;-3.67;100.00
53011;BME280;42803;55.762;38.084;2023-01-29T01:25:58;99713.13;;;-3.68;100.00
53011;BME280;42803;55.762;38.084;2023-01-29T01:28:28;99711.31;;;-3.69;100.00
53011;BME280;42803;55.762;38.084;2023-01-29T01:30:57;99708.75;;;-3.69;100.00
53011;BME280;42803;55.762;38.084;2023-01-29T01:33:35;99708.03;;;-3.68;100.00
53011;BME280;42803;55.762;38.084;2023-01-29T01:36:06;99710.81;;;-3.66;100.00
53011;BME280;42803;55.762;38.084;2023-01-29T01:38:38;99711.44;;;-3.61;100.00
53011;BME280;42803;55.762;38.084;2023-01-29T01:41:11;99708.66;;;-3.63;100.00
53011;BME280;42803;55.762;38.084;2023-01-29T01:43:48;99703.84;;;-3.67;100.00
53011;BME280;42803;55.762;38.084;2023-01-29T01:46:18;99693.75;;;-3.73;100.00
53011;BME280;42803;55.762;38.084;2023-01-29T01:48:50;99700.81;;;-3.77;100.00
53011;BME280;42803;55.762;38.084;2023-01-29T01:51:22;99698.13;;;-3.84;100.00
53011;BME280;42803;55.762;38.084;2023-01-29T01:53:55;99693.53;;;-3.87;100.00
53011;BME280;42803;55.762;38.084;2023-01-29T01:56:30;99693.94;;;-3.84;100.00
53011;BME280;42803;55.762;38.084;2023-01-29T01:59:11;99690.25;;;-3.86;100.00
53011;BME280;42803;55.762;38.084;2023-01-29T02:01:43;99695.47;;;-3.92;100.00
53011;BME280;42803;55.762;38.084;2023-01-29T02:04:19;99698.22;;;-3.90;100.00
53011;BME280;42803;55.762;38.084;2023-01-29T02:07:08;99691.88;;;-3.86;100.00
53011;BME280;42803;55.762;38.084;2023-01-29T02:10:02;99684.06;;;-3.75;100.00
53011;BME280;42803;55.762;38.084;2023-01-29T02:12:35;99679.25;;;-3.67;100.00
53011;BME280;42803;55.762;38.084;2023-01-29T02:15:06;99680.28;;;-3.72;100.00
53011;BME280;42803;55.762;38.084;2023-01-29T02:17:36;99670.81;;;-3.73;100.00
53011;BME280;42803;55.762;38.084;2023-01-29T02:20:11;99682.47;;;-3.62;100.00
53011;BME280;42803;55.762;38.084;2023-01-29T02:23:06;99669.78;;;-3.80;100.00
53011;BME280;42803;55.762;38.084;2023-01-29T02:26:03;99663.03;;;-3.93;100.00
53011;BME280;42803;55.762;38.084;2023-01-29T02:28:44;99664.25;;;-3.96;100.00
53011;BME280;42803;55.762;38.084;2023-01-29T02:31:23;99661.72;;;-3.96;100.00
53011;BME280;42803;55.762;38.084;2023-01-29T02:34:03;99662.41;;;-3.97;100.00
53011;BME280;42803;55.762;38.084;2023-01-29T02:36:40;99655.16;;;-4.07;100.00
53011;BME280;42803;55.762;38.084;2023-01-29T02:39:15;99643.94;;;-4.14;100.00
53011;BME280;42803;55.762;38.084;2023-01-29T02:41:55;99644.53;;;-4.23;100.00
53011;BME280;42803;55.762;38.084;2023-01-29T02:44:33;99642.28;;;-4.27;100.00
53011;BME280;42803;55.762;38.084;2023-01-29T02:47:10;99642.75;;;-4.29;100.00
53011;BME280;42803;55.762;38.084;2023-01-29T02:49:47;99645.19;;;-4.36;100.00
53011;BME280;42803;55.762;38.084;2023-01-29T02:52:20;99639.66;;;-4.39;100.00
53011;BME280;42803;55.762;38.084;2023-01-29T02:54:54;99636.94;;;-4.41;100.00
53011;BME280;42803;55.762;38.084;2023-01-29T02:57:32;99627.66;;;-4.41;100.00
53011;BME280;42803;55.762;38.084;2023-01-29T03:00:08;99624.31;;;-4.34;100.00
53011;BME280;42803;55.762;38.084;2023-01-29T03:02:45;99626.84;;;-4.34;100.00
53011;BME280;42803;55.762;38.084;2023-01-29T03:05:21;99621.03;;;-4.33;100.00
53011;BME280;42803;55.762;38.084;2023-01-29T03:07:57;99617.88;;;-4.37;100.00
53011;BME280;42803;55.762;38.084;2023-01-29T03:10:38;99617.38;;;-4.35;100.00
53011;BME280;42803;55.762;38.084;2023-01-29T03:13:12;99615.03;;;-4.33;100.00
53011;BME280;42803;55.762;38.084;2023-01-29T03:15:48;99611.03;;;-4.31;100.00
53011;BME280;42803;55.762;38.084;2023-01-29T03:18:43;99612.59;;;-4.26;100.00
53011;BME280;42803;55.762;38.084;2023-01-29T03:21:17;99607.69;;;-4.25;100.00
53011;BME280;42803;55.762;38.084;2023-01-29T03:24:08;99598.66;;;-4.23;100.00
53011;BME280;42803;55.762;38.084;2023-01-29T03:26:58;99611.59;;;-4.21;100.00
53011;BME280;42803;55.762;38.084;2023-01-29T03:29:48;99604.97;;;-4.13;100.00
53011;BME280;42803;55.762;38.084;2023-01-29T03:32:58;99591.50;;;-4.12;100.00
53011;BME280;42803;55.762;38.084;2023-01-29T03:35:35;99581.72;;;-4.09;100.00
53011;BME280;42803;55.762;38.084;2023-01-29T03:38:06;99582.16;;;-4.06;100.00
53011;BME280;42803;55.762;38.084;2023-01-29T03:40:42;99570.81;;;-4.08;100.00
53011;BME280;42803;55.762;38.084;2023-01-29T03:43:24;99571.34;;;-4.11;100.00
53011;BME280;42803;55.762;38.084;2023-01-29T03:46:03;99576.03;;;-4.14;100.00
53011;BME280;42803;55.762;38.084;2023-01-29T03:48:39;99572.97;;;-4.11;100.00
53011;BME280;42803;55.762;38.084;2023-01-29T03:51:15;99560.44;;;-4.10;100.00
53011;BME280;42803;55.762;38.084;2023-01-29T03:53:52;99556.25;;;-4.09;100.00
53011;BME280;42803;55.762;38.084;2023-01-29T03:56:32;99546.06;;;-4.09;100.00
53011;BME280;42803;55.762;38.084;2023-01-29T03:59:11;99554.41;;;-4.10;100.00
53011;BME280;42803;55.762;38.084;2023-01-29T04:02:04;99550.03;;;-4.11;100.00
53011;BME280;42803;55.762;38.084;2023-01-29T04:04:37;99541.47;;;-4.12;100.00
53011;BME280;42803;55.762;38.084;2023-01-29T04:07:10;99539.13;;;-4.10;100.00
53011;BME280;42803;55.762;38.084;2023-01-29T04:09:44;99531.66;;;-4.09;100.00
53011;BME280;42803;55.762;38.084;2023-01-29T04:12:19;99531.16;;;-4.06;100.00
53011;BME280;42803;55.762;38.084;2023-01-29T04:14:49;99529.34;;;-4.07;100.00
53011;BME280;42803;55.762;38.084;2023-01-29T04:17:26;99523.84;;;-4.10;100.00
53011;BME280;42803;55.762;38.084;2023-01-29T04:20:12;99522.00;;;-4.11;100.00
53011;BME280;42803;55.762;38.084;2023-01-29T04:22:45;99513.22;;;-4.13;100.00
53011;BME280;42803;55.762;38.084;2023-01-29T04:25:16;99519.78;;;-4.15;100.00
53011;BME280;42803;55.762;38.084;2023-01-29T04:28:00;99516.06;;;-4.18;100.00
53011;BME280;42803;55.762;38.084;2023-01-29T04:30:38;99512.81;;;-4.17;100.00
53011;BME280;42803;55.762;38.084;2023-01-29T04:33:21;99509.56;;;-4.15;100.00
53011;BME280;42803;55.762;38.084;2023-01-29T04:36:04;99504.06;;;-4.19;100.00
53011;BME280;42803;55.762;38.084;2023-01-29T04:38:46;99507.84;;;-4.22;100.00
53011;BME280;42803;55.762;38.084;2023-01-29T04:41:21;99508.75;;;-4.22;100.00
53011;BME280;42803;55.762;38.084;2023-01-29T04:43:58;99513.84;;;-4.22;100.00
53011;BME280;42803;55.762;38.084;2023-01-29T04:46:35;99508.75;;;-4.22;100.00
53011;BME280;42803;55.762;38.084;2023-01-29T04:49:16;99501.41;;;-4.26;100.00
53011;BME280;42803;55.762;38.084;2023-01-29T04:51:50;99504.69;;;-4.27;100.00
53011;BME280;42803;55.762;38.084;2023-01-29T04:54:28;99508.84;;;-4.27;100.00
53011;BME280;42803;55.762;38.084;2023-01-29T04:57:05;99516.69;;;-4.26;100.00
53011;BME280;42803;55.762;38.084;2023-01-29T04:59:40;99508.31;;;-4.25;100.00
53011;BME280;42803;55.762;38.084;2023-01-29T05:02:11;99506.69;;;-4.24;100.00
53011;BME280;42803;55.762;38.084;2023-01-29T05:04:43;99491.63;;;-4.23;100.00
53011;BME280;42803;55.762;38.084;2023-01-29T05:07:15;99496.72;;;-4.23;100.00
53011;BME280;42803;55.762;38.084;2023-01-29T05:09:46;99496.72;;;-4.23;100.00
53011;BME280;42803;55.762;38.084;2023-01-29T05:12:16;99490.50;;;-4.25;100.00
53011;BME280;42803;55.762;38.084;2023-01-29T05:14:46;99488.34;;;-4.22;100.00
53011;BME280;42803;55.762;38.084;2023-01-29T05:17:18;99490.19;;;-4.21;100.00
53011;BME280;42803;55.762;38.084;2023-01-29T05:19:48;99490.59;;;-4.18;100.00
53011;BME280;42803;55.762;38.084;2023-01-29T05:22:18;99496.84;;;-4.15;100.00
53011;BME280;42803;55.762;38.084;2023-01-29T05:24:49;99498.84;;;-4.13;100.00
53011;BME280;42803;55.762;38.084;2023-01-29T05:27:22;99490.59;;;-4.18;100.00
53011;BME280;42803;55.762;38.084;2023-01-29T05:30:10;99485.09;;;-4.21;100.00
53011;BME280;42803;55.762;38.084;2023-01-29T05:32:40;99489.28;;;-4.21;100.00
53011;BME280;42803;55.762;38.084;2023-01-29T05:35:09;99487.44;;;-4.22;100.00
53011;BME280;42803;55.762;38.084;2023-01-29T05:37:39;99494.88;;;-4.24;100.00
53011;BME280;42803;55.762;38.084;2023-01-29T05:40:09;99499.97;;;-4.24;100.00
53011;BME280;42803;55.762;38.084;2023-01-29T05:42:39;99500.91;;;-4.23;100.00
53011;BME280;42803;55.762;38.084;2023-01-29T05:45:09;99489.38;;;-4.27;100.00
53011;BME280;42803;55.762;38.084;2023-01-29T05:47:38;99489.38;;;-4.27;100.00
53011;BME280;42803;55.762;38.084;2023-01-29T05:50:08;99494.47;;;-4.27;100.00
53011;BME280;42803;55.762;38.084;2023-01-29T05:52:38;99491.22;;;-4.26;100.00
53011;BME280;42803;55.762;38.084;2023-01-29T05:55:09;99499.78;;;-4.25;100.00
53011;BME280;42803;55.762;38.084;2023-01-29T05:57:39;99493.03;;;-4.25;100.00
53011;BME280;42803;55.762;38.084;2023-01-29T06:00:09;99498.84;;;-4.26;100.00
53011;BME280;42803;55.762;38.084;2023-01-29T06:02:39;99493.03;;;-4.25;100.00
53011;BME280;42803;55.762;38.084;2023-01-29T06:05:08;99491.94;;;-4.27;100.00
53011;BME280;42803;55.762;38.084;2023-01-29T06:07:39;99496.31;;;-4.26;100.00
53011;BME280;42803;55.762;38.084;2023-01-29T06:10:13;99494.88;;;-4.24;100.00
53011;BME280;42803;55.762;38.084;2023-01-29T06:12:43;99498.13;;;-4.25;100.00
53011;BME280;42803;55.762;38.084;2023-01-29T06:15:12;99495.41;;;-4.26;100.00
53011;BME280;42803;55.762;38.084;2023-01-29T06:17:42;99485.41;;;-4.25;100.00
53011;BME280;42803;55.762;38.084;2023-01-29T06:20:11;99489.28;;;-4.21;100.00
53011;BME280;42803;55.762;38.084;2023-01-29T06:22:43;99490.19;;;-4.21;100.00
53011;BME280;42803;55.762;38.084;2023-01-29T06:25:12;99488.78;;;-4.19;100.00
53011;BME280;42803;55.762;38.084;2023-01-29T06:27:41;99479.31;;;-4.20;100.00
53011;BME280;42803;55.762;38.084;2023-01-29T06:30:11;99484.41;;;-4.20;100.00
53011;BME280;42803;55.762;38.084;2023-01-29T06:32:40;99481.53;;;-4.15;100.00
53011;BME280;42803;55.762;38.084;2023-01-29T06:35:09;99485.41;;;-4.12;100.00
53011;BME280;42803;55.762;38.084;2023-01-29T06:37:38;99477.75;;;-4.12;100.00
53011;BME280;42803;55.762;38.084;2023-01-29T06:40:10;99477.97;;;-4.10;100.00
53011;BME280;42803;55.762;38.084;2023-01-29T06:42:39;99475.59;;;-4.09;100.00
53011;BME280;42803;55.762;38.084;2023-01-29T06:45:09;99467.63;;;-4.05;100.00
53011;BME280;42803;55.762;38.084;2023-01-29T06:47:38;99469.50;;;-4.04;100.00
53011;BME280;42803;55.762;38.084;2023-01-29T06:50:08;99468.59;;;-4.04;100.00
53011;BME280;42803;55.762;38.084;2023-01-29T06:52:38;99468.97;;;-4.01;100.00
53011;BME280;42803;55.762;38.084;2023-01-29T06:55:09;99463.88;;;-4.01;100.00
53011;BME280;42803;55.762;38.084;2023-01-29T06:57:38;99467.22;;;-3.95;100.00
53011;BME280;42803;55.762;38.084;2023-01-29T07:00:09;99462.13;;;-3.95;100.00
53011;BME280;42803;55.762;38.084;2023-01-29T07:02:38;99446.34;;;-3.93;100.00
53011;BME280;42803;55.762;38.084;2023-01-29T07:05:07;99457.13;;;-3.88;100.00
53011;BME280;42803;55.762;38.084;2023-01-29T07:07:36;99436.41;;;-3.84;100.00
53011;BME280;42803;55.762;38.084;2023-01-29T07:10:06;99454.44;;;-3.82;100.00
53011;BME280;42803;55.762;38.084;2023-01-29T07:12:37;99452.22;;;-3.74;100.00
53011;BME280;42803;55.762;38.084;2023-01-29T07:15:07;99436.19;;;-3.73;100.00
53011;BME280;42803;55.762;38.084;2023-01-29T07:17:36;99432.72;;;-3.73;100.00
53011;BME280;42803;55.762;38.084;2023-01-29T07:20:06;99433.72;;;-3.65;100.00
53011;BME280;42803;55.762;38.084;2023-01-29T07:22:36;99433.19;;;-3.63;100.00
53011;BME280;42803;55.762;38.084;2023-01-29T07:25:06;99434.50;;;-3.59;100.00
53011;BME280;42803;55.762;38.084;2023-01-29T07:27:37;99434.72;;;-3.58;100.00
53011;BME280;42803;55.762;38.084;2023-01-29T07:30:07;99433.78;;;-3.58;100.00
53011;BME280;42803;55.762;38.084;2023-01-29T07:32:36;99433.38;;;-3.61;100.00
53011;BME280;42803;55.762;38.084;2023-01-29T07:35:06;99432.16;;;-3.58;100.00
53011;BME280;42803;55.762;38.084;2023-01-29T07:37:35;99437.44;;;-3.56;100.00
53011;BME280;42803;55.762;38.084;2023-01-29T07:40:06;99436.78;;;-3.48;100.00
53011;BME280;42803;55.762;38.084;2023-01-29T07:42:39;99430.47;;;-3.45;100.00
53011;BME280;42803;55.762;38.084;2023-01-29T07:45:11;99427.72;;;-3.46;100.00
53011;BME280;42803;55.762;38.084;2023-01-29T07:47:40;99435.16;;;-3.48;100.00
53011;BME280;42803;55.762;38.084;2023-01-29T07:50:10;99421.38;;;-3.42;100.00
53011;BME280;42803;55.762;38.084;2023-01-29T07:52:39;99426.34;;;-3.37;100.00
53011;BME280;42803;55.762;38.084;2023-01-29T07:55:08;99427.88;;;-3.32;100.00
53011;BME280;42803;55.762;38.084;2023-01-29T07:57:40;99433.97;;;-3.24;100.00
53011;BME280;42803;55.762;38.084;2023-01-29T08:00:10;99431.00;;;-3.27;100.00
53011;BME280;42803;55.762;38.084;2023-01-29T08:02:40;99435.06;;;-3.22;100.00
53011;BME280;42803;55.762;38.084;2023-01-29T08:05:09;99426.97;;;-3.12;100.00
53011;BME280;42803;55.762;38.084;2023-01-29T08:07:38;99422.94;;;-3.10;100.00
53011;BME280;42803;55.762;38.084;2023-01-29T08:10:08;99416.84;;;-2.98;100.00
53011;BME280;42803;55.762;38.084;2023-01-29T08:12:40;99412.53;;;-2.92;100.00
53011;BME280;42803;55.762;38.084;2023-01-29T08:15:10;99410.75;;;-2.86;100.00
53011;BME280;42803;55.762;38.084;2023-01-29T08:17:39;99406.47;;;-2.73;100.00
53011;BME280;42803;55.762;38.084;2023-01-29T08:20:24;99395.28;;;-2.53;100.00
53011;BME280;42803;55.762;38.084;2023-01-29T08:22:58;99395.31;;;-2.46;99.39
53011;BME280;42803;55.762;38.084;2023-01-29T08:25:27;99393.91;;;-2.37;98.93
53011;BME280;42803;55.762;38.084;2023-01-29T08:27:59;99390.28;;;-2.32;98.30
53011;BME280;42803;55.762;38.084;2023-01-29T08:30:31;99381.53;;;-2.27;97.69
53011;BME280;42803;55.762;38.084;2023-01-29T08:33:02;99380.09;;;-2.25;98.14
53011;BME280;42803;55.762;38.084;2023-01-29T08:35:53;99385.91;;;-2.26;97.02
53011;BME280;42803;55.762;38.084;2023-01-29T08:38:37;99386.31;;;-2.23;96.67
53011;BME280;42803;55.762;38.084;2023-01-29T08:41:07;99381.00;;;-2.24;96.00
53011;BME280;42803;55.762;38.084;2023-01-29T08:43:41;99390.38;;;-2.17;96.15
53011;BME280;42803;55.762;38.084;2023-01-29T08:46:10;99390.38;;;-2.10;96.05
53011;BME280;42803;55.762;38.084;2023-01-29T08:48:39;99385.50;;;-2.02;95.37
53011;BME280;42803;55.762;38.084;2023-01-29T08:51:08;99377.22;;;-2.06;94.78
53011;BME280;42803;55.762;38.084;2023-01-29T08:53:37;99379.59;;;-2.15;94.32
53011;BME280;42803;55.762;38.084;2023-01-29T08:56:07;99373.97;;;-2.05;94.01
53011;BME280;42803;55.762;38.084;2023-01-29T08:58:37;99365.94;;;-2.01;93.43
53011;BME280;42803;55.762;38.084;2023-01-29T09:01:09;99367.78;;;-1.93;92.83
53011;BME280;42803;55.762;38.084;2023-01-29T09:03:39;99370.53;;;-1.91;92.86
53011;BME280;42803;55.762;38.084;2023-01-29T09:06:11;99365.75;;;-2.03;93.38
53011;BME280;42803;55.762;38.084;2023-01-29T09:08:44;99357.50;;;-2.07;92.55
53011;BME280;42803;55.762;38.084;2023-01-29T09:11:14;99353.16;;;-2.01;93.70
53011;BME280;42803;55.762;38.084;2023-01-29T09:13:44;99358.59;;;-2.12;92.07
53011;BME280;42803;55.762;38.084;2023-01-29T09:16:23;99354.97;;;-2.07;92.58
53011;BME280;42803;55.762;38.084;2023-01-29T09:18:53;99357.38;;;-2.02;92.46
53011;BME280;42803;55.762;38.084;2023-01-29T09:21:23;99347.69;;;-1.97;91.84
53011;BME280;42803;55.762;38.084;2023-01-29T09:23:53;99349.50;;;-2.03;90.89
53011;BME280;42803;55.762;38.084;2023-01-29T09:26:22;99346.91;;;-2.10;90.63
53011;BME280;42803;55.762;38.084;2023-01-29T09:28:51;99347.03;;;-2.23;90.84
53011;BME280;42803;55.762;38.084;2023-01-29T09:31:22;99347.56;;;-2.26;91.96
53011;BME280;42803;55.762;38.084;2023-01-29T09:33:55;99351.44;;;-2.22;91.33
53011;BME280;42803;55.762;38.084;2023-01-29T09:36:28;99340.25;;;-2.30;91.41
53011;BME280;42803;55.762;38.084;2023-01-29T09:38:57;99339.88;;;-2.40;91.44
53011;BME280;42803;55.762;38.084;2023-01-29T09:41:38;99330.94;;;-2.29;91.67
53011;BME280;42803;55.762;38.084;2023-01-29T09:44:18;99316.88;;;-2.33;92.60
53011;BME280;42803;55.762;38.084;2023-01-29T09:46:55;99316.50;;;-2.36;91.97
53011;BME280;42803;55.762;38.084;2023-01-29T09:49:30;99311.41;;;-2.36;92.17
53011;BME280;42803;55.762;38.084;2023-01-29T09:52:04;99309.56;;;-2.37;91.71
53011;BME280;42803;55.762;38.084;2023-01-29T09:54:47;99307.72;;;-2.38;91.59
53011;BME280;42803;55.762;38.084;2023-01-29T09:57:23;99299.69;;;-2.41;91.46
53011;BME280;42803;55.762;38.084;2023-01-29T09:59:54;99298.63;;;-2.36;91.37
53011;BME280;42803;55.762;38.084;2023-01-29T10:02:43;99301.31;;;-2.41;91.21
53011;BME280;42803;55.762;38.084;2023-01-29T10:05:28;99297.16;;;-2.34;91.72
53011;BME280;42803;55.762;38.084;2023-01-29T10:11:03;99294.59;;;-2.34;91.25
53011;BME280;42803;55.762;38.084;2023-01-29T10:13:42;99280.00;;;-2.35;91.46
53011;BME280;42803;55.762;38.084;2023-01-29T10:16:24;99285.13;;;-2.28;91.27
53011;BME280;42803;55.762;38.084;2023-01-29T10:21:54;99271.59;;;-2.34;90.31
53011;BME280;42803;55.762;38.084;2023-01-29T10:24:35;99261.75;;;-2.31;90.42
53011;BME280;42803;55.762;38.084;2023-01-29T10:27:12;99263.53;;;-2.37;90.47
53011;BME280;42803;55.762;38.084;2023-01-29T10:29:44;99248.94;;;-2.38;90.57
53011;BME280;42803;55.762;38.084;2023-01-29T10:32:16;99250.25;;;-2.34;90.82
53011;BME280;42803;55.762;38.084;2023-01-29T10:34:52;99249.34;;;-2.28;90.42
53011;BME280;42803;55.762;38.084;2023-01-29T10:37:27;99237.31;;;-2.14;89.73
53011;BME280;42803;55.762;38.084;2023-01-29T10:40:20;99230.94;;;-2.11;89.33
53011;BME280;42803;55.762;38.084;2023-01-29T10:42:55;99228.75;;;-2.01;89.29
53011;BME280;42803;55.762;38.084;2023-01-29T10:45:30;99218.72;;;-1.99;88.04
53011;BME280;42803;55.762;38.084;2023-01-29T10:48:31;99208.47;;;-1.92;88.00
53011;BME280;42803;55.762;38.084;2023-01-29T10:51:14;99197.88;;;-1.95;87.80
53011;BME280;42803;55.762;38.084;2023-01-29T10:53:59;99192.97;;;-1.93;87.53
53011;BME280;42803;55.762;38.084;2023-01-29T10:56:48;99189.31;;;-2.10;86.64
53011;BME280;42803;55.762;38.084;2023-01-29T10:59:38;99185.81;;;-2.03;87.60
53011;BME280;42803;55.762;38.084;2023-01-29T11:02:16;99176.72;;;-2.01;88.74
53011;BME280;42803;55.762;38.084;2023-01-29T11:04:46;99181.28;;;-2.06;87.93
53011;BME280;42803;55.762;38.084;2023-01-29T11:07:25;99166.66;;;-2.00;87.88
53011;BME280;42803;55.762;38.084;2023-01-29T11:09:59;99163.19;;;-2.00;87.19
53011;BME280;42803;55.762;38.084;2023-01-29T11:12:32;99163.19;;;-1.93;86.79
53011;BME280;42803;55.762;38.084;2023-01-29T11:15:06;99169.03;;;-2.01;86.53
53011;BME280;42803;55.762;38.084;2023-01-29T11:18:02;99175.59;;;-2.03;87.42
53011;BME280;42803;55.762;38.084;2023-01-29T11:20:37;99171.22;;;-2.11;88.03
53011;BME280;42803;55.762;38.084;2023-01-29T11:23:24;99175.25;;;-2.21;87.21
53011;BME280;42803;55.762;38.084;2023-01-29T11:25:56;99170.50;;;-2.17;86.89
53011;BME280;42803;55.762;38.084;2023-01-29T11:28:38;99177.78;;;-2.21;86.31
53011;BME280;42803;55.762;38.084;2023-01-29T11:31:34;99161.88;;;-2.18;86.96
53011;BME280;42803;55.762;38.084;2023-01-29T11:34:15;99162.09;;;-2.16;87.35
53011;BME280;42803;55.762;38.084;2023-01-29T11:36:57;99163.88;;;-2.30;85.80
53011;BME280;42803;55.762;38.084;2023-01-29T11:39:29;99160.78;;;-2.27;85.33
53011;BME280;42803;55.762;38.084;2023-01-29T11:42:00;99156.03;;;-2.31;85.07
53011;BME280;42803;55.762;38.084;2023-01-29T11:44:33;99163.19;;;-2.29;84.69
53011;BME280;42803;55.762;38.084;2023-01-29T11:47:14;99160.97;;;-2.26;84.72
53011;BME280;42803;55.762;38.084;2023-01-29T11:49:47;99159.91;;;-2.21;84.43
53011;BME280;42803;55.762;38.084;2023-01-29T11:52:18;99159.91;;;-2.13;84.21
53011;BME280;42803;55.762;38.084;2023-01-29T11:54:53;99150.78;;;-2.04;84.01
53011;BME280;42803;55.762;38.084;2023-01-29T11:57:28;99142.53;;;-1.87;84.46
53011;BME280;42803;55.762;38.084;2023-01-29T12:00:04;99151.84;;;-1.88;83.95
53011;BME280;42803;55.762;38.084;2023-01-29T12:02:35;99151.69;;;-1.97;83.25
53011;BME280;42803;55.762;38.084;2023-01-29T12:05:14;99151.16;;;-1.94;83.85
53011;BME280;42803;55.762;38.084;2023-01-29T12:07:47;99152.78;;;-2.02;83.62
53011;BME280;42803;55.762;38.084;2023-01-29T12:10:33;99153.31;;;-2.04;84.30
53011;BME280;42803;55.762;38.084;2023-01-29T12:13:14;99153.53;;;-2.10;84.32
53011;BME280;42803;55.762;38.084;2023-01-29T12:16:03;99157.31;;;-2.06;85.10
53011;BME280;42803;55.762;38.084;2023-01-29T12:18:40;99160.25;;;-2.10;84.56
53011;BME280;42803;55.762;38.084;2023-01-29T12:21:14;99151.50;;;-2.05;84.25
53011;BME280;42803;55.762;38.084;2023-01-29T12:23:51;99151.50;;;-1.98;83.70
53011;BME280;42803;55.762;38.084;2023-01-29T12:26:29;99142.56;;;-2.02;84.05
53011;BME280;42803;55.762;38.084;2023-01-29T12:29:14;99142.19;;;-2.05;84.50
53011;BME280;42803;55.762;38.084;2023-01-29T12:31:56;99143.47;;;-2.15;83.87
53011;BME280;42803;55.762;38.084;2023-01-29T12:34:34;99142.38;;;-2.17;84.03
53011;BME280;42803;55.762;38.084;2023-01-29T12:37:12;99146.00;;;-2.15;84.18
53011;BME280;42803;55.762;38.084;2023-01-29T12:39:45;99142.38;;;-2.17;84.48
53011;BME280;42803;55.762;38.084;2023-01-29T12:42:20;99137.06;;;-2.26;84.55
53011;BME280;42803;55.762;38.084;2023-01-29T12:44:54;99141.25;;;-2.34;85.17
53011;BME280;42803;55.762;38.084;2023-01-29T12:47:27;99133.56;;;-2.41;85.21
53011;BME280;42803;55.762;38.084;2023-01-29T12:50:04;99137.22;;;-2.39;85.22
53011;BME280;42803;55.762;38.084;2023-01-29T12:52:38;99138.31;;;-2.37;85.76
53011;BME280;42803;55.762;38.084;2023-01-29T12:55:17;99137.22;;;-2.39;85.78
53011;BME280;42803;55.762;38.084;2023-01-29T12:57:53;99137.97;;;-2.40;85.51
53011;BME280;42803;55.762;38.084;2023-01-29T13:00:26;99124.81;;;-2.43;85.75
53011;BME280;42803;55.762;38.084;2023-01-29T13:03:00;99126.63;;;-2.42;86.31
53011;BME280;42803;55.762;38.084;2023-01-29T13:05:37;99131.72;;;-2.49;85.68
53011;BME280;42803;55.762;38.084;2023-01-29T13:08:13;99131.72;;;-2.49;86.46
53011;BME280;42803;55.762;38.084;2023-01-29T13:10:45;99130.44;;;-2.53;86.54
53011;BME280;42803;55.762;38.084;2023-01-29T13:13:23;99140.28;;;-2.56;86.39
53011;BME280;42803;55.762;38.084;2023-01-29T13:15:56;99135.00;;;-2.57;86.93
53011;BME280;42803;55.762;38.084;2023-01-29T13:18:40;99131.53;;;-2.58;86.72
53011;BME280;42803;55.762;38.084;2023-01-29T13:21:12;99126.97;;;-2.60;86.91
53011;BME280;42803;55.762;38.084;2023-01-29T13:23:44;99125.69;;;-2.64;87.11
53011;BME280;42803;55.762;38.084;2023-01-29T13:26:17;99124.03;;;-2.63;87.24